Time;durP1;ratioP1;P1;durP2;ratioP2;P2;SDS_P1;SDS_P2;PMS_P1;PMS_P2;Temp;Humidity;BMP_temperature;BMP_pressure;BME280_temperature;BME280_humidity;BME280_pressure;Samples;Min_cycle;Max_cycle;Signal;HPM_P1;HPM_P2
2023/05/23 00:02:07;;;;;;;6.28;4.72;;;;;;;17.05;100.00;99563.50;5141607;27;20035;-64
2023/05/23 00:04:35;;;;;;;8.15;5.10;;;;;;;17.02;100.00;99567.41;5142251;27;20076;-64
2023/05/23 00:07:03;;;;;;;8.18;5.20;;;;;;;16.84;100.00;99562.72;5141896;27;20039;-64
2023/05/23 00:09:29;;;;;;;8.52;4.88;;;;;;;16.78;100.00;99560.03;5141338;27;20039;-64
2023/05/23 00:11:54;;;;;;;7.82;4.95;;;;;;;16.74;100.00;99558.81;5141673;27;20221;-64
2023/05/23 00:14:20;;;;;;;6.80;4.97;;;;;;;16.70;100.00;99558.41;5142239;27;20043;-64
2023/05/23 00:16:48;;;;;;;8.32;5.05;;;;;;;16.56;100.00;99559.38;5139919;27;20034;-64
2023/05/23 00:19:14;;;;;;;8.38;4.78;;;;;;;16.52;100.00;99558.13;5123718;27;20031;-64
2023/05/23 00:21:47;;;;;;;6.30;5.07;;;;;;;16.49;100.00;99561.22;5122769;27;20380;-64
2023/05/23 00:24:13;;;;;;;6.68;4.93;;;;;;;16.57;100.00;99558.34;5123026;27;20140;-64
2023/05/23 00:26:38;;;;;;;9.80;5.05;;;;;;;16.53;100.00;99560.59;5123419;27;20055;-63
2023/05/23 00:29:04;;;;;;;5.95;4.80;;;;;;;16.38;100.00;99554.63;5131176;27;20140;-63
2023/05/23 00:31:30;;;;;;;7.18;5.10;;;;;;;16.31;100.00;99550.28;5127531;27;20035;-64
2023/05/23 00:33:55;;;;;;;7.35;4.53;;;;;;;16.38;100.00;99535.91;5125047;27;20321;-63
2023/05/23 00:36:23;;;;;;;5.80;4.45;;;;;;;16.02;100.00;99535.44;5122555;27;20042;-63
2023/05/23 00:38:48;;;;;;;6.28;4.85;;;;;;;15.75;100.00;99543.38;5126212;27;20221;-63
2023/05/23 00:41:14;;;;;;;6.03;4.78;;;;;;;15.68;100.00;99542.53;5123657;27;20313;-63
2023/05/23 00:43:40;;;;;;;5.65;4.70;;;;;;;15.93;100.00;99542.81;5126663;27;20036;-63
2023/05/23 00:46:06;;;;;;;7.47;4.95;;;;;;;15.62;100.00;99538.81;5123531;27;20410;-63
2023/05/23 00:48:32;;;;;;;7.93;5.80;;;;;;;15.28;100.00;99542.31;5123034;27;20050;-63
2023/05/23 00:50:58;;;;;;;6.68;5.40;;;;;;;15.29;100.00;99540.47;5122442;27;20405;-63
2023/05/23 00:53:23;;;;;;;8.77;5.20;;;;;;;15.29;100.00;99543.94;5123975;27;20023;-63
2023/05/23 00:55:49;;;;;;;8.38;5.50;;;;;;;15.21;100.00;99537.94;5127328;27;20051;-63
2023/05/23 00:58:16;;;;;;;6.63;4.55;;;;;;;15.30;100.00;99539.44;5126282;27;20042;-63
2023/05/23 01:00:43;;;;;;;7.38;4.70;;;;;;;15.11;100.00;99534.81;5127542;27;20035;-63
2023/05/23 01:03:16;;;;;;;9.60;5.10;;;;;;;15.21;100.00;99540.63;5123453;27;20031;-63
2023/05/23 01:05:42;;;;;;;6.22;4.63;;;;;;;14.97;100.00;99537.41;5127316;27;20214;-63
2023/05/23 01:08:08;;;;;;;6.38;4.50;;;;;;;14.84;100.00;99528.50;5126012;27;20042;-63
2023/05/23 01:10:33;;;;;;;10.52;5.80;;;;;;;14.89;100.00;99526.06;5124823;27;20039;-63
2023/05/23 01:12:59;;;;;;;7.43;5.00;;;;;;;15.16;100.00;99530.53;5123917;27;20031;-63
2023/05/23 01:15:35;;;;;;;7.15;5.03;;;;;;;15.21;100.00;99522.78;5127220;27;20059;-63
2023/05/23 01:18:00;;;;;;;8.73;5.68;;;;;;;15.20;100.00;99518.47;5126463;27;20042;-63
2023/05/23 01:20:37;;;;;;;6.38;4.70;;;;;;;15.25;100.00;99520.53;5121991;27;20283;-64
2023/05/23 01:23:17;;;;;;;5.78;4.60;;;;;;;15.27;100.00;99519.31;5124929;27;20047;-63
2023/05/23 01:26:01;;;;;;;8.02;5.18;;;;;;;15.31;100.00;99517.91;5123999;27;20050;-64
2023/05/23 01:28:36;;;;;;;6.53;4.32;;;;;;;15.20;100.00;99533.63;5123763;27;20063;-64
2023/05/23 01:31:05;;;;;;;5.38;3.90;;;;;;;15.07;100.00;99534.38;5122328;27;20073;-63
2023/05/23 01:33:31;;;;;;;6.05;4.00;;;;;;;15.08;100.00;99536.03;5121856;27;20034;-63
2023/05/23 01:36:00;;;;;;;4.50;3.75;;;;;;;15.20;100.00;99526.47;5124707;27;20035;-63
2023/05/23 01:38:26;;;;;;;6.80;3.80;;;;;;;15.26;100.00;99524.84;5124482;27;20031;-63
2023/05/23 01:40:52;;;;;;;4.32;3.42;;;;;;;15.33;100.00;99523.03;5123372;27;20038;-63
2023/05/23 01:43:18;;;;;;;5.15;3.78;;;;;;;15.37;100.00;99521.63;5120969;27;20031;-63
2023/05/23 01:45:43;;;;;;;6.47;3.70;;;;;;;15.26;100.00;99530.19;5123980;27;20085;-63
2023/05/23 01:48:12;;;;;;;5.10;3.60;;;;;;;15.37;100.00;99534.97;5124321;27;20035;-63
2023/05/23 01:50:37;;;;;;;6.43;3.88;;;;;;;15.26;100.00;99525.69;5124464;27;20175;-63
2023/05/23 01:53:04;;;;;;;6.07;3.50;;;;;;;15.41;100.00;99530.88;5124139;27;20210;-64
2023/05/23 01:55:30;;;;;;;6.68;4.05;;;;;;;15.41;100.00;99506.88;5123167;27;20088;-63
2023/05/23 01:57:56;;;;;;;6.00;3.72;;;;;;;15.53;100.00;99517.78;5122484;27;20035;-64
2023/05/23 02:00:22;;;;;;;7.13;3.55;;;;;;;15.51;100.00;99522.50;5125236;27;20031;-64
2023/05/23 02:02:47;;;;;;;7.03;3.65;;;;;;;15.14;100.00;99519.25;5124501;27;20355;-63
2023/05/23 02:05:13;;;;;;;6.43;3.90;;;;;;;15.06;100.00;99518.59;5123273;27;20070;-63
2023/05/23 02:07:38;;;;;;;6.65;4.93;;;;;;;14.82;100.00;99510.03;5122091;27;20027;-64
2023/05/23 02:10:07;;;;;;;4.88;3.88;;;;;;;15.01;100.00;99513.84;5122001;27;20240;-63
2023/05/23 02:12:32;;;;;;;4.85;3.92;;;;;;;14.97;100.00;99504.59;5122375;27;20136;-64
2023/05/23 02:14:58;;;;;;;4.20;3.20;;;;;;;15.16;100.00;99506.53;5122682;27;20050;-63
2023/05/23 02:17:23;;;;;;;5.63;3.70;;;;;;;15.13;100.00;99508.78;5122695;27;20027;-63
2023/05/23 02:19:49;;;;;;;5.72;3.38;;;;;;;15.04;100.00;99512.63;5124106;27;20035;-63
2023/05/23 02:22:15;;;;;;;6.13;3.28;;;;;;;15.21;100.00;99512.09;5121222;27;20329;-64
2023/05/23 02:24:40;;;;;;;5.20;3.70;;;;;;;15.08;100.00;99517.38;5126196;27;20050;-63
2023/05/23 02:27:06;;;;;;;5.80;3.70;;;;;;;14.98;100.00;99523.06;5125405;27;20123;-63
2023/05/23 02:29:31;;;;;;;4.43;3.35;;;;;;;14.98;100.00;99515.06;5124955;27;20035;-63
2023/05/23 02:31:57;;;;;;;5.93;3.70;;;;;;;15.23;100.00;99509.25;5120810;27;20046;-64
2023/05/23 02:34:22;;;;;;;5.82;3.58;;;;;;;15.09;100.00;99513.69;5122142;27;20062;-64
2023/05/23 02:36:48;;;;;;;5.40;3.70;;;;;;;14.98;100.00;99524.91;5124329;27;20064;-63
2023/05/23 02:39:13;;;;;;;4.85;3.40;;;;;;;15.00;100.00;99525.53;5130199;27;20031;-63
2023/05/23 02:41:39;;;;;;;7.53;3.28;;;;;;;15.10;100.00;99522.50;5129910;27;20072;-63
2023/05/23 02:44:04;;;;;;;6.10;4.15;;;;;;;15.13;100.00;99527.44;5121868;27;20067;-63
2023/05/23 02:46:30;;;;;;;5.38;3.63;;;;;;;15.11;100.00;99524.16;5121665;27;20039;-64
2023/05/23 02:48:55;;;;;;;4.93;3.40;;;;;;;14.91;100.00;99516.84;5122550;27;20271;-63
2023/05/23 02:51:21;;;;;;;4.95;3.72;;;;;;;15.02;100.00;99515.50;5121671;27;20035;-63
2023/05/23 02:53:46;;;;;;;4.18;3.78;;;;;;;15.11;100.00;99519.66;5123530;27;20047;-64
2023/05/23 02:56:12;;;;;;;5.70;3.63;;;;;;;15.01;100.00;99516.50;5122369;27;20045;-64
2023/05/23 02:58:38;;;;;;;6.03;4.13;;;;;;;15.11;100.00;99519.66;5123530;28;20280;-63
2023/05/23 03:01:04;;;;;;;4.90;3.40;;;;;;;14.76;100.00;99517.97;5124121;28;20034;-63
2023/05/23 03:03:32;;;;;;;4.38;3.50;;;;;;;14.77;100.00;99516.97;5131640;28;20035;-64
2023/05/23 03:05:58;;;;;;;5.88;3.58;;;;;;;14.94;100.00;99516.47;5133907;27;20043;-64
2023/05/23 03:08:24;;;;;;;4.70;3.35;;;;;;;14.90;100.00;99515.22;5136068;27;20041;-65
2023/05/23 03:10:49;;;;;;;4.97;3.47;;;;;;;15.11;100.00;99526.81;5138768;28;20066;-63
2023/05/23 03:13:15;;;;;;;6.72;3.60;;;;;;;14.88;100.00;99527.91;5138672;28;20027;-63
2023/05/23 03:15:41;;;;;;;5.68;3.60;;;;;;;14.78;100.00;99526.59;5138242;27;20035;-63
2023/05/23 03:18:06;;;;;;;6.13;3.33;;;;;;;14.63;100.00;99516.88;5138950;28;20031;-63
2023/05/23 03:20:32;;;;;;;6.78;4.30;;;;;;;14.53;100.00;99526.19;5138514;27;20354;-63
2023/05/23 03:22:57;;;;;;;8.43;3.88;;;;;;;14.47;100.00;99521.63;5138031;27;20039;-63
2023/05/23 03:25:23;;;;;;;5.38;3.63;;;;;;;14.48;100.00;99517.94;5138141;28;20072;-64
2023/05/23 03:27:48;;;;;;;5.63;3.97;;;;;;;14.60;100.00;99513.78;5138058;27;20267;-63
2023/05/23 03:30:14;;;;;;;5.88;4.22;;;;;;;14.69;100.00;99513.44;5138091;27;20039;-63
2023/05/23 03:32:39;;;;;;;4.45;3.95;;;;;;;14.74;100.00;99525.34;5139444;27;20037;-63
2023/05/23 03:35:05;;;;;;;5.88;3.63;;;;;;;14.66;100.00;99513.81;5142594;27;20039;-63
2023/05/23 03:37:31;;;;;;;5.38;3.53;;;;;;;14.75;100.00;99514.50;5142139;27;20039;-63
2023/05/23 03:39:56;;;;;;;5.47;3.50;;;;;;;14.53;100.00;99520.84;5142397;27;20045;-64
2023/05/23 03:42:22;;;;;;;4.68;3.60;;;;;;;14.66;100.00;99519.16;5141997;27;20027;-63
2023/05/23 03:44:47;;;;;;;4.35;3.47;;;;;;;14.65;100.00;99516.69;5142215;27;20071;-63
2023/05/23 03:47:12;;;;;;;5.03;3.70;;;;;;;14.69;100.00;99523.25;5142435;27;20321;-63
2023/05/23 03:49:38;;;;;;;3.92;3.38;;;;;;;14.75;100.00;99527.81;5142307;27;20039;-63
2023/05/23 03:52:03;;;;;;;4.68;3.42;;;;;;;14.78;100.00;99526.59;5141530;27;20050;-63
2023/05/23 03:54:29;;;;;;;6.45;3.70;;;;;;;14.96;100.00;99525.09;5141604;27;20035;-63
2023/05/23 03:56:54;;;;;;;5.80;4.00;;;;;;;14.93;100.00;99517.47;5137632;27;20034;-63
2023/05/23 03:59:20;;;;;;;5.30;3.60;;;;;;;14.81;100.00;99520.88;5123684;27;20061;-63
2023/05/23 04:01:45;;;;;;;4.22;3.20;;;;;;;15.12;100.00;99521.28;5126784;27;20031;-63
2023/05/23 04:04:10;;;;;;;3.65;3.30;;;;;;;15.22;100.00;99524.41;5126914;27;20052;-63
2023/05/23 04:06:37;;;;;;;4.93;3.75;;;;;;;15.30;100.00;99526.09;5123051;27;20080;-63
2023/05/23 04:09:02;;;;;;;5.60;3.45;;;;;;;15.41;100.00;99532.72;5127859;27;20208;-63
2023/05/23 04:11:28;;;;;;;5.03;3.60;;;;;;;15.28;100.00;99531.63;5127534;27;20031;-63
2023/05/23 04:13:54;;;;;;;6.00;3.58;;;;;;;15.32;100.00;99532.88;5123223;27;20032;-63
2023/05/23 04:16:21;;;;;;;5.70;3.30;;;;;;;15.40;100.00;99525.75;5125169;27;20263;-63
2023/05/23 04:18:47;;;;;;;5.13;3.70;;;;;;;15.45;100.00;99533.97;5123152;27;20356;-63
2023/05/23 04:21:12;;;;;;;4.75;3.42;;;;;;;15.44;100.00;99541.16;5127952;27;20023;-63
2023/05/23 04:23:38;;;;;;;8.05;4.10;;;;;;;15.50;100.00;99526.19;5127286;27;20104;-63
2023/05/23 04:26:04;;;;;;;4.90;3.70;;;;;;;15.78;100.00;99532.31;5124090;27;20054;-63
2023/05/23 04:28:30;;;;;;;5.80;3.40;;;;;;;15.90;100.00;99525.34;5126743;27;20031;-63
2023/05/23 04:30:57;;;;;;;4.78;3.20;;;;;;;16.15;99.87;99546.97;5127699;27;20091;-63
2023/05/23 04:33:22;;;;;;;3.88;3.13;;;;;;;16.24;98.22;99545.78;5130264;27;20355;-62
2023/05/23 04:35:48;;;;;;;4.13;3.47;;;;;;;16.31;97.64;99544.94;5124411;27;20371;-62
2023/05/23 04:38:13;;;;;;;5.38;4.03;;;;;;;16.41;97.04;99546.19;5122847;27;20041;-62
2023/05/23 04:40:39;;;;;;;5.10;3.40;;;;;;;16.49;96.61;99543.31;5129590;27;20065;-63
2023/05/23 04:43:04;;;;;;;5.15;3.40;;;;;;;16.42;96.80;99547.00;5125495;27;20028;-63
2023/05/23 04:45:30;;;;;;;5.25;3.90;;;;;;;16.41;95.68;99551.53;5125572;27;20042;-65
2023/05/23 04:47:56;;;;;;;5.85;3.70;;;;;;;16.67;95.51;99542.78;5124020;27;20031;-63
2023/05/23 04:50:21;;;;;;;5.00;4.07;;;;;;;16.86;94.88;99541.94;5126463;27;20264;-63
2023/05/23 04:52:47;;;;;;;4.90;3.97;;;;;;;16.96;92.43;99554.06;5126986;27;20035;-63
2023/05/23 04:55:13;;;;;;;5.47;3.30;;;;;;;16.99;92.18;99546.44;5125162;27;20031;-63
2023/05/23 04:57:38;;;;;;;4.07;3.40;;;;;;;16.83;93.08;99553.03;5122488;27;20038;-63
2023/05/23 05:00:09;;;;;;;4.15;3.75;;;;;;;17.21;91.85;99555.84;5122603;27;20035;-63
2023/05/23 05:02:36;;;;;;;6.35;3.03;;;;;;;17.40;89.64;99545.31;5123122;27;20104;-63
2023/05/23 05:05:03;;;;;;;5.45;3.83;;;;;;;17.13;89.16;99556.09;5127029;27;20050;-63
2023/05/23 05:07:28;;;;;;;4.35;3.55;;;;;;;16.71;91.56;99554.69;5124554;27;20032;-63
2023/05/23 05:09:54;;;;;;;4.55;3.45;;;;;;;16.76;92.56;99551.41;5122417;27;20049;-63
2023/05/23 05:12:19;;;;;;;7.20;3.92;;;;;;;16.78;92.43;99557.38;5122390;27;20041;-63
2023/05/23 05:14:45;;;;;;;4.50;3.85;;;;;;;16.73;93.49;99562.50;5126201;27;20056;-63
2023/05/23 05:17:10;;;;;;;5.85;3.95;;;;;;;16.94;93.64;99561.47;5125839;27;20083;-64
2023/05/23 05:19:35;;;;;;;5.13;3.40;;;;;;;16.83;93.46;99569.09;5125758;27;20039;-63
2023/05/23 05:22:01;;;;;;;5.22;3.95;;;;;;;17.01;92.95;99562.28;5125981;27;20039;-63
2023/05/23 05:24:27;;;;;;;7.95;5.20;;;;;;;17.05;93.06;99564.31;5131628;27;20047;-64
2023/05/23 05:26:53;;;;;;;6.95;5.78;;;;;;;16.95;93.70;99571.97;5122013;27;20438;-64
2023/05/23 05:29:19;;;;;;;7.40;6.68;;;;;;;17.07;93.85;99559.59;5126071;27;20050;-64
2023/05/23 05:31:44;;;;;;;8.98;4.97;;;;;;;17.13;94.76;99569.47;5122154;27;20023;-63
2023/05/23 05:34:10;;;;;;;6.78;5.22;;;;;;;17.08;93.63;99563.09;5124203;27;20458;-64
2023/05/23 05:36:35;;;;;;;6.30;4.70;;;;;;;17.24;93.86;99574.16;5122164;27;20349;-63
2023/05/23 05:39:01;;;;;;;6.95;4.82;;;;;;;17.43;92.77;99580.50;5123155;27;20043;-63
2023/05/23 05:41:27;;;;;;;5.03;3.78;;;;;;;17.79;92.62;99571.16;5122453;27;20238;-63
2023/05/23 05:43:52;;;;;;;6.13;4.50;;;;;;;17.77;89.40;99576.75;5122804;27;20031;-63
2023/05/23 05:46:18;;;;;;;7.30;4.53;;;;;;;17.91;89.27;99564.09;5126626;27;20050;-63
2023/05/23 05:48:43;;;;;;;6.10;3.60;;;;;;;18.07;89.42;99571.63;5123887;27;20055;-63
2023/05/23 05:51:08;;;;;;;5.03;3.47;;;;;;;18.47;89.71;99574.06;5121975;27;20042;-65
2023/05/23 05:53:34;;;;;;;4.57;3.45;;;;;;;18.92;86.12;99579.34;5124151;27;20031;-63
2023/05/23 05:55:59;;;;;;;4.43;3.95;;;;;;;19.34;82.94;99581.19;5121733;27;20050;-63
2023/05/23 05:58:25;;;;;;;5.95;4.00;;;;;;;19.71;81.24;99579.34;5122783;27;20224;-64
2023/05/23 06:00:50;;;;;;;6.38;4.15;;;;;;;20.07;80.34;99575.81;5121899;27;20043;-64
2023/05/23 06:03:16;;;;;;;5.13;4.55;;;;;;;20.17;77.84;99579.81;5121067;27;20030;-64
2023/05/23 06:05:42;;;;;;;4.95;4.22;;;;;;;19.84;77.97;99580.25;5125437;27;20031;-64
2023/05/23 06:08:07;;;;;;;5.22;3.63;;;;;;;19.89;78.05;99586.59;5120740;27;20031;-64
2023/05/23 06:10:33;;;;;;;5.20;3.58;;;;;;;20.25;77.72;99582.19;5121608;27;20038;-64
2023/05/23 06:12:58;;;;;;;4.38;4.00;;;;;;;20.39;74.72;99580.97;5123240;27;20333;-64
2023/05/23 06:15:24;;;;;;;6.65;5.88;;;;;;;20.52;74.16;99591.53;5121361;27;20289;-64
2023/05/23 06:17:51;;;;;;;5.30;4.28;;;;;;;20.68;72.88;99580.09;5121803;27;20028;-64
2023/05/23 06:20:16;;;;;;;5.15;4.22;;;;;;;21.02;73.48;99586.59;5121197;27;20103;-64
2023/05/23 06:22:41;;;;;;;4.57;4.18;;;;;;;21.39;73.07;99590.94;5119894;27;20039;-64
2023/05/23 06:25:07;;;;;;;5.03;3.95;;;;;;;21.55;70.19;99592.91;5104035;28;20040;-64
2023/05/23 06:27:32;;;;;;;4.13;3.67;;;;;;;21.80;71.04;99592.63;5126088;27;20114;-64
2023/05/23 06:29:58;;;;;;;5.45;4.22;;;;;;;21.93;67.51;99590.50;5130743;27;20035;-64
2023/05/23 06:32:23;;;;;;;3.85;3.30;;;;;;;21.80;67.30;99589.94;5132216;27;20031;-64
2023/05/23 06:34:49;;;;;;;5.65;3.35;;;;;;;22.01;65.43;99575.00;5132491;27;20340;-64
2023/05/23 06:37:15;;;;;;;7.00;4.22;;;;;;;22.22;66.03;99577.03;5132376;27;20095;-64
2023/05/23 06:39:40;;;;;;;4.60;3.75;;;;;;;22.54;64.19;99572.75;5130902;27;20110;-65
2023/05/23 06:42:06;;;;;;;5.57;4.38;;;;;;;22.56;64.21;99564.41;5128685;27;20038;-64
2023/05/23 06:44:31;;;;;;;5.15;3.58;;;;;;;22.82;61.44;99560.28;5131448;27;20051;-64
2023/05/23 06:46:57;;;;;;;4.43;3.03;;;;;;;23.06;62.98;99556.38;5130697;27;20039;-64
2023/05/23 06:49:24;;;;;;;5.13;3.30;;;;;;;23.14;61.00;99563.22;5130679;27;20027;-64
2023/05/23 06:51:50;;;;;;;4.00;3.60;;;;;;;23.39;62.13;99558.16;5131227;27;20121;-65
2023/05/23 06:54:16;;;;;;;9.95;5.20;;;;;;;23.51;59.49;99552.66;5132315;27;20218;-63
2023/05/23 06:56:41;;;;;;;7.18;4.63;;;;;;;23.78;60.04;99545.44;5132761;27;20034;-64
2023/05/23 06:59:07;;;;;;;6.30;3.33;;;;;;;23.39;57.81;99543.84;5131306;27;20038;-64
2023/05/23 07:01:32;;;;;;;6.45;3.85;;;;;;;23.55;59.16;99551.09;5132953;27;20042;-64
2023/05/23 07:03:58;;;;;;;6.13;4.85;;;;;;;23.76;56.87;99546.75;5130874;27;20031;-64
2023/05/23 07:06:24;;;;;;;3.75;3.28;;;;;;;23.60;57.79;99547.66;5133385;27;20233;-64
2023/05/23 07:08:49;;;;;;;4.57;3.75;;;;;;;23.97;57.71;99535.13;5135892;27;20035;-65
2023/05/23 07:11:15;;;;;;;4.63;3.30;;;;;;;24.19;57.95;99535.88;5135357;27;20031;-64
2023/05/23 07:13:40;;;;;;;6.47;4.15;;;;;;;24.45;57.52;99536.16;5136160;27;20057;-65
2023/05/23 07:16:06;;;;;;;6.18;4.18;;;;;;;24.49;57.66;99538.09;5124012;27;20046;-65
2023/05/23 07:18:31;;;;;;;5.68;3.80;;;;;;;24.61;56.98;99535.19;5141516;27;20073;-65
2023/05/23 07:20:56;;;;;;;7.15;4.00;;;;;;;24.86;56.16;99545.41;5141896;27;20035;-65
2023/05/23 07:23:25;;;;;;;4.95;3.65;;;;;;;25.07;56.22;99541.81;5150497;27;20051;-64
2023/05/23 07:25:51;;;;;;;4.97;3.47;;;;;;;25.26;52.59;99544.09;5143404;27;20038;-64
2023/05/23 07:28:16;;;;;;;3.85;3.38;;;;;;;25.50;52.59;99541.75;5141578;27;20048;-64
2023/05/23 07:30:42;;;;;;;6.68;3.80;;;;;;;25.51;52.03;99537.97;5141417;27;20141;-64
2023/05/23 07:33:07;;;;;;;5.72;3.63;;;;;;;25.55;52.63;99531.75;5141339;27;20194;-64
2023/05/23 07:35:33;;;;;;;4.80;3.55;;;;;;;25.66;51.10;99532.63;5140974;27;20036;-64
2023/05/23 07:37:58;;;;;;;5.60;4.00;;;;;;;25.63;51.08;99533.94;5141453;27;20041;-64
2023/05/23 07:40:24;;;;;;;5.72;3.53;;;;;;;25.81;48.49;99529.97;5140890;27;20043;-64
2023/05/23 07:42:49;;;;;;;4.97;4.00;;;;;;;25.89;49.32;99525.91;5141202;27;20031;-64
2023/05/23 07:45:14;;;;;;;4.18;3.47;;;;;;;26.16;49.94;99523.00;5140974;27;20065;-64
2023/05/23 07:47:40;;;;;;;5.20;3.53;;;;;;;26.23;49.40;99526.28;5141677;27;20035;-64
2023/05/23 07:50:08;;;;;;;4.95;3.58;;;;;;;26.12;48.84;99520.03;5140733;27;20043;-64
2023/05/23 07:52:33;;;;;;;4.88;4.00;;;;;;;26.29;50.60;99519.78;5141374;27;20031;-64
2023/05/23 07:54:59;;;;;;;7.07;3.78;;;;;;;26.37;46.51;99530.13;5141466;27;20217;-64
2023/05/23 07:57:25;;;;;;;4.15;3.58;;;;;;;26.36;46.72;99518.44;5140811;27;20027;-64
2023/05/23 07:59:51;;;;;;;5.85;3.50;;;;;;;26.43;45.52;99526.31;5140890;27;20316;-64
2023/05/23 08:02:17;;;;;;;5.15;3.63;;;;;;;26.37;45.23;99520.09;5140849;27;20043;-64
2023/05/23 08:04:44;;;;;;;7.10;3.90;;;;;;;26.48;44.25;99520.91;5140634;27;20214;-64
2023/05/23 08:07:10;;;;;;;6.47;3.63;;;;;;;26.62;42.61;99523.88;5140754;27;20039;-64
2023/05/23 08:09:36;;;;;;;5.10;3.70;;;;;;;26.61;42.09;99514.09;5141370;27;20067;-64
2023/05/23 08:12:02;;;;;;;4.55;3.40;;;;;;;26.79;43.72;99502.69;5139964;27;20388;-64
2023/05/23 08:14:27;;;;;;;6.35;3.90;;;;;;;27.04;42.26;99513.53;5140654;27;20106;-64
2023/05/23 08:16:53;;;;;;;5.25;3.97;;;;;;;27.19;41.76;99515.41;5141005;27;20120;-64
2023/05/23 08:19:18;;;;;;;4.13;3.60;;;;;;;27.13;39.45;99515.69;5140068;27;20046;-64
2023/05/23 08:21:44;;;;;;;3.45;3.13;;;;;;;27.17;40.65;99514.88;5140118;27;20039;-64
2023/05/23 08:24:11;;;;;;;3.78;3.05;;;;;;;27.20;38.30;99510.78;5140541;27;20043;-64
2023/05/23 08:26:37;;;;;;;4.15;3.42;;;;;;;27.05;38.00;99508.94;5140545;27;20046;-64
2023/05/23 08:29:03;;;;;;;5.20;3.15;;;;;;;26.77;40.34;99502.13;5140581;27;20318;-64
2023/05/23 08:31:29;;;;;;;4.22;3.53;;;;;;;26.79;41.10;99507.28;5140629;27;20221;-64
2023/05/23 08:33:54;;;;;;;5.85;4.10;;;;;;;26.66;43.05;99508.66;5140900;27;20337;-64
2023/05/23 08:36:20;;;;;;;5.60;3.63;;;;;;;26.69;43.52;99508.13;5140214;27;20030;-65
2023/05/23 08:38:45;;;;;;;7.15;3.75;;;;;;;26.82;40.99;99504.84;5140396;27;20039;-65
2023/05/23 08:41:21;;;;;;;4.45;3.40;;;;;;;27.24;41.34;99496.38;5140251;27;20062;-64
2023/05/23 08:43:47;;;;;;;5.18;3.38;;;;;;;27.37;36.86;99494.97;5139202;27;20049;-64
2023/05/23 08:46:14;;;;;;;3.65;3.10;;;;;;;27.62;38.58;99497.59;5140704;27;20328;-65
2023/05/23 08:48:41;;;;;;;4.53;3.45;;;;;;;27.77;38.41;99496.69;5140135;27;20107;-64
2023/05/23 08:51:10;;;;;;;7.13;3.20;;;;;;;27.82;39.54;99495.84;5139699;27;20023;-64
2023/05/23 08:53:39;;;;;;;6.95;4.03;;;;;;;27.36;38.65;99506.94;5140296;27;20035;-65
2023/05/23 08:56:06;;;;;;;4.32;3.35;;;;;;;27.38;38.56;99498.50;5140031;27;20046;-65
2023/05/23 08:58:34;;;;;;;4.78;3.00;;;;;;;27.20;39.66;99500.72;5140477;27;20217;-64
2023/05/23 09:01:00;;;;;;;5.15;3.35;;;;;;;26.86;40.05;99503.22;5135862;27;20035;-64
2023/05/23 09:03:26;;;;;;;6.40;3.97;;;;;;;26.76;43.95;99499.69;5131687;27;20042;-64
2023/05/23 09:05:56;;;;;;;3.92;3.40;;;;;;;27.06;41.07;99499.69;5132424;27;20217;-65
2023/05/23 09:08:23;;;;;;;5.45;3.70;;;;;;;27.05;39.15;99492.63;5133275;27;20054;-64
2023/05/23 09:10:49;;;;;;;3.80;3.28;;;;;;;26.96;40.64;99492.31;5132192;27;20042;-64
2023/05/23 09:13:16;;;;;;;5.13;3.55;;;;;;;26.93;39.41;99490.16;5134357;27;20054;-64
2023/05/23 09:16:00;;;;;;;4.65;3.92;;;;;;;27.04;39.88;99489.06;5129301;27;20281;-64
2023/05/23 09:18:26;;;;;;;5.68;3.58;;;;;;;26.97;41.03;99490.41;5131276;27;20292;-64
2023/05/23 09:20:52;;;;;;;5.40;3.67;;;;;;;26.79;38.47;99483.66;5133696;27;20261;-64
2023/05/23 09:23:18;;;;;;;4.45;3.50;;;;;;;26.60;40.69;99488.03;5132748;27;20038;-64
2023/05/23 09:25:47;;;;;;;4.95;3.30;;;;;;;26.38;40.77;99488.31;5135344;27;20035;-64
2023/05/23 09:28:12;;;;;;;4.40;3.60;;;;;;;26.16;39.58;99493.97;5139084;27;20229;-63
2023/05/23 09:30:38;;;;;;;4.10;3.20;;;;;;;26.02;42.19;99482.84;5138804;27;20035;-64
2023/05/23 09:33:04;;;;;;;6.22;3.75;;;;;;;25.52;44.22;99479.97;5139610;27;20047;-64
2023/05/23 09:35:29;;;;;;;5.75;3.60;;;;;;;25.05;46.90;99486.25;5139621;27;20035;-63
2023/05/23 09:38:00;;;;;;;4.93;3.92;;;;;;;24.97;44.08;99490.28;5138879;27;20038;-64
2023/05/23 09:40:33;;;;;;;6.72;4.40;;;;;;;25.15;43.07;99489.03;5139457;27;20062;-63
2023/05/23 09:43:06;;;;;;;4.88;3.47;;;;;;;24.91;44.16;99493.16;5139121;27;20038;-64
2023/05/23 09:45:32;;;;;;;4.80;3.47;;;;;;;24.91;45.18;99493.16;5138980;27;20031;-63
2023/05/23 09:47:58;;;;;;;5.13;3.72;;;;;;;24.91;44.09;99490.44;5138979;27;20058;-63
2023/05/23 09:50:32;;;;;;;5.07;3.55;;;;;;;24.78;45.93;99491.72;5139200;27;20384;-63
2023/05/23 09:52:57;;;;;;;6.63;3.80;;;;;;;24.76;43.54;99483.88;5138434;27;20034;-63
2023/05/23 09:55:23;;;;;;;4.43;3.58;;;;;;;24.64;45.27;99479.72;5139302;27;20071;-64
2023/05/23 09:57:53;;;;;;;4.38;3.60;;;;;;;24.35;44.46;99477.34;5138505;27;20034;-63
2023/05/23 10:00:19;;;;;;;4.13;3.72;;;;;;;24.39;44.49;99475.75;5138939;27;20035;-63
2023/05/23 10:03:13;;;;;;;4.50;3.90;;;;;;;24.52;43.41;99474.50;5138970;27;20035;-64
2023/05/23 10:05:56;;;;;;;5.15;4.32;;;;;;;24.58;42.34;99476.16;5138333;27;20050;-64
2023/05/23 10:08:33;;;;;;;4.47;3.17;;;;;;;24.61;44.45;99472.13;5138306;27;20031;-63
2023/05/23 10:11:13;;;;;;;4.50;3.40;;;;;;;24.81;45.36;99473.06;5139519;27;20046;-63
2023/05/23 10:14:03;;;;;;;5.55;3.70;;;;;;;24.96;40.84;99475.06;5139037;27;20041;-63
2023/05/23 10:16:52;;;;;;;4.13;3.72;;;;;;;25.04;42.21;99471.91;5138261;27;20119;-63
2023/05/23 10:19:32;;;;;;;4.30;3.50;;;;;;;25.03;41.94;99470.28;5138525;27;20886;-63
2023/05/23 10:22:01;;;;;;;4.55;3.38;;;;;;;24.95;42.26;99476.13;5137605;27;20039;-63
2023/05/23 10:24:27;;;;;;;4.57;3.63;;;;;;;25.02;43.86;99471.34;5134275;27;20055;-63
2023/05/23 10:26:53;;;;;;;4.10;3.70;;;;;;;24.83;43.16;99484.47;5131788;27;20191;-63
2023/05/23 10:29:22;;;;;;;7.28;4.28;;;;;;;24.65;42.27;99468.63;5133053;27;20047;-64
2023/05/23 10:31:48;;;;;;;4.35;3.67;;;;;;;24.76;43.09;99462.22;5129781;27;20106;-64
2023/05/23 10:34:22;;;;;;;3.53;3.22;;;;;;;24.97;43.38;99459.63;5132751;27;20253;-63
2023/05/23 10:36:54;;;;;;;3.60;3.30;;;;;;;25.28;43.00;99455.22;5132581;27;20076;-63
2023/05/23 10:40:05;;;;;;;3.97;3.50;;;;;;;25.47;43.06;99445.50;5130948;27;20031;-64
2023/05/23 10:42:55;;;;;;;4.80;3.38;;;;;;;25.55;40.98;99444.19;5126803;27;20051;-64
2023/05/23 10:45:22;;;;;;;4.72;3.40;;;;;;;25.59;41.28;99432.53;5128835;27;20504;-64
2023/05/23 10:47:48;;;;;;;3.88;3.10;;;;;;;25.48;43.96;99440.91;5130992;27;20253;-64
2023/05/23 10:50:36;;;;;;;6.18;3.80;;;;;;;25.56;43.27;99445.81;5132010;27;20031;-64
2023/05/23 10:53:05;;;;;;;3.72;3.42;;;;;;;25.51;40.69;99446.59;5130239;27;20075;-64
2023/05/23 10:55:35;;;;;;;4.63;3.47;;;;;;;25.43;40.05;99441.72;5130198;27;20102;-64
2023/05/23 10:58:19;;;;;;;4.65;3.60;;;;;;;25.31;40.73;99441.13;5130467;27;20053;-64
2023/05/23 11:00:53;;;;;;;;;;;;;;;25.20;40.95;99440.28;5128979;27;20035;-64
2023/05/23 11:03:18;;;;;;;3.58;3.28;;;;;;;25.11;41.43;99452.69;5130858;27;20093;-64
2023/05/23 11:05:51;;;;;;;4.47;3.47;;;;;;;25.16;43.73;99454.63;5129090;27;20257;-64
2023/05/23 11:08:19;;;;;;;7.55;3.55;;;;;;;25.28;42.72;99449.78;5128678;27;20321;-64
2023/05/23 11:10:58;;;;;;;3.50;3.20;;;;;;;25.23;40.88;99445.16;5131618;27;20035;-64
2023/05/23 11:13:24;;;;;;;4.90;3.78;;;;;;;25.26;43.64;99457.38;5131128;27;20043;-64
2023/05/23 11:15:50;;;;;;;7.07;3.67;;;;;;;25.17;42.40;99457.06;5130134;27;20221;-64
2023/05/23 11:18:29;;;;;;;5.10;3.63;;;;;;;25.22;42.75;99438.13;5132473;27;20102;-64
2023/05/23 11:20:59;;;;;;;7.13;3.72;;;;;;;25.26;41.47;99452.75;5132381;27;20058;-64
2023/05/23 11:23:40;;;;;;;4.00;3.08;;;;;;;25.28;41.16;99449.78;5130475;27;20050;-64
2023/05/23 11:26:30;;;;;;;4.60;3.47;;;;;;;25.31;41.32;99449.25;5129384;27;20265;-64
2023/05/23 11:28:56;;;;;;;3.67;3.30;;;;;;;25.38;42.10;99452.53;5130038;27;20118;-64
2023/05/23 11:31:23;;;;;;;4.55;3.50;;;;;;;25.44;42.78;99448.75;5131186;27;20038;-64